Terminal Aerodrome Forecast
Issued by NWS Lake Charles, LA

Home | Current Version | Previous Version | Text Only | Print | Product List | Glossary On
Versions: 1 2 3 4 5 6 7 8 9 10 11 12 13 14 15 16 17 18 19 20
000
FTUS44 KLCH 250520
TAFBPT
TAF
KBPT 250520Z 2506/2606 14012KT P6SM SCT020 BKN035
     FM251100 16012KT P6SM SCT015 BKN025
     FM251400 16015G22KT P6SM SCT012 BKN025
     FM251700 16015G22KT P6SM SCT025 BKN035
     FM260100 15012KT P6SM BKN025=

USA.gov is the U.S. government's official web portal to all federal, state and local government web resources and services.